Time;durP1;ratioP1;P1;durP2;ratioP2;P2;SDS_P1;SDS_P2;PMS_P1;PMS_P2;Temp;Humidity;BMP_temperature;BMP_pressure;BME280_temperature;BME280_humidity;BME280_pressure;Samples;Min_cycle;Max_cycle;Signal;HPM_P1;HPM_P2
2022/11/19 00:01:28;;;;;;;18.60;10.82;;;;;;;5.41;100.00;100767.59;5087090;28;20322;-79
2022/11/19 00:03:54;;;;;;;18.95;11.90;;;;;;;5.37;100.00;100765.00;5063094;28;20199;-79
2022/11/19 00:06:25;;;;;;;20.45;12.73;;;;;;;5.33;100.00;100768.50;5064417;28;20392;-80
2022/11/19 00:08:50;;;;;;;17.42;11.15;;;;;;;5.31;100.00;100775.50;5069039;28;20056;-79
2022/11/19 00:14:12;;;;;;;19.23;11.60;;;;;;;5.25;100.00;100779.91;5068913;28;20129;-79
2022/11/19 00:16:39;;;;;;;20.52;12.05;;;;;;;5.23;100.00;100784.28;5064601;28;20112;-79
2022/11/19 00:19:04;;;;;;;16.70;10.52;;;;;;;5.21;100.00;100775.53;5062802;28;20040;-79
2022/11/19 00:21:30;;;;;;;18.02;11.32;;;;;;;5.15;100.00;100784.28;5070447;28;20702;-79
2022/11/19 00:23:56;;;;;;;19.17;11.60;;;;;;;5.12;100.00;100786.91;5069246;28;20044;-79
2022/11/19 00:26:22;;;;;;;18.58;11.95;;;;;;;5.07;100.00;100789.53;5070337;28;20064;-79
2022/11/19 00:28:48;;;;;;;23.67;12.38;;;;;;;5.05;100.00;100787.78;5070036;28;20424;-79
2022/11/19 00:31:14;;;;;;;19.80;12.75;;;;;;;5.01;100.00;100792.16;5070355;28;20052;-79
2022/11/19 00:33:41;;;;;;;18.67;12.48;;;;;;;5.00;100.00;100787.78;5069987;28;20037;-78
2022/11/19 00:36:10;;;;;;;20.83;11.90;;;;;;;4.99;100.00;100788.63;5073211;28;20020;-78
2022/11/19 00:38:36;;;;;;;22.20;12.40;;;;;;;4.94;100.00;100787.75;5068882;28;20060;-78
2022/11/19 00:41:02;;;;;;;22.70;13.65;;;;;;;4.90;100.00;100783.41;5062127;28;20071;-78
2022/11/19 00:43:45;;;;;;;24.50;13.82;;;;;;;4.85;100.00;100788.66;5038702;28;20401;-78
2022/11/19 00:46:12;;;;;;;22.95;13.35;;;;;;;4.83;100.00;100800.88;5054554;28;20504;-78
2022/11/19 00:48:38;;;;;;;24.58;14.02;;;;;;;4.79;100.00;100793.00;5071694;28;20056;-78
2022/11/19 00:51:04;;;;;;;23.70;13.43;;;;;;;4.80;100.00;100792.13;5077704;28;20036;-78
2022/11/19 00:53:30;;;;;;;22.65;13.68;;;;;;;4.76;100.00;100799.13;5059583;28;20150;-78
2022/11/19 00:55:59;;;;;;;22.75;14.52;;;;;;;4.68;100.00;100799.13;5055845;28;20484;-78
2022/11/19 00:58:24;;;;;;;24.42;13.57;;;;;;;4.65;100.00;100804.38;5056483;28;20099;-78
2022/11/19 01:00:50;;;;;;;24.15;14.52;;;;;;;4.65;100.00;100803.47;5055152;28;20076;-78
2022/11/19 01:03:16;;;;;;;26.10;13.35;;;;;;;4.66;100.00;100805.25;5059129;28;20061;-78
2022/11/19 01:05:41;;;;;;;21.40;12.07;;;;;;;4.67;100.00;100802.63;5058624;28;20017;-78
2022/11/19 01:08:07;;;;;;;21.73;12.75;;;;;;;4.68;100.00;100816.63;5060458;28;20090;-78
2022/11/19 01:10:33;;;;;;;20.33;13.30;;;;;;;4.67;100.00;100818.38;5053072;28;20378;-78
2022/11/19 01:15:45;;;;;;;21.88;12.50;;;;;;;4.62;100.00;100830.56;5053353;28;20033;-78
2022/11/19 01:18:11;;;;;;;22.80;14.00;;;;;;;4.57;100.00;100824.44;5051596;28;20032;-73
2022/11/19 01:20:36;;;;;;;22.80;13.88;;;;;;;4.53;100.00;100822.69;5057859;28;20045;-74
2022/11/19 01:23:02;;;;;;;22.98;12.32;;;;;;;4.53;100.00;100820.09;5052964;28;20044;-74
2022/11/19 01:25:27;;;;;;;22.40;13.63;;;;;;;4.49;100.00;100829.66;5046531;28;20039;-73
2022/11/19 01:27:53;;;;;;;23.10;13.27;;;;;;;4.49;100.00;100834.91;5058086;28;20029;-74
2022/11/19 01:30:18;;;;;;;21.35;12.80;;;;;;;4.47;100.00;100828.78;5055724;28;20044;-73
2022/11/19 01:32:44;;;;;;;21.65;12.13;;;;;;;4.44;100.00;100836.66;5057492;28;20111;-74
2022/11/19 01:35:09;;;;;;;22.88;12.80;;;;;;;4.43;100.00;100840.16;5036969;28;20388;-74
2022/11/19 01:37:35;;;;;;;24.30;12.40;;;;;;;4.44;100.00;100848.88;5056027;28;20129;-74
2022/11/19 01:40:00;;;;;;;20.00;12.73;;;;;;;4.43;100.00;100841.91;5055640;28;20025;-74
2022/11/19 01:42:49;;;;;;;23.38;12.65;;;;;;;4.41;100.00;100847.13;5056657;28;20050;-74
2022/11/19 01:45:34;;;;;;;20.50;12.32;;;;;;;4.39;100.00;100842.75;5050823;28;20093;-74
2022/11/19 01:48:13;;;;;;;21.75;12.57;;;;;;;4.35;100.00;100846.22;5050977;28;20045;-74
2022/11/19 01:50:54;;;;;;;17.17;11.68;;;;;;;4.31;100.00;100854.09;5056454;28;20116;-74
2022/11/19 01:53:23;;;;;;;18.65;12.13;;;;;;;4.28;100.00;100853.22;5058833;28;20151;-74
2022/11/19 01:55:49;;;;;;;18.15;11.88;;;;;;;4.26;100.00;100858.44;5057465;28;20478;-74
2022/11/19 01:58:19;;;;;;;19.60;10.88;;;;;;;4.26;100.00;100870.69;5064495;28;20047;-74
2022/11/19 02:00:46;;;;;;;19.85;11.65;;;;;;;4.22;100.00;100869.78;5052966;28;20044;-74
2022/11/19 02:03:12;;;;;;;18.05;10.93;;;;;;;4.20;100.00;100865.38;5075852;28;20509;-73
2022/11/19 02:05:40;;;;;;;19.75;11.10;;;;;;;4.21;100.00;100867.16;5081449;28;20040;-73
2022/11/19 02:08:08;;;;;;;19.58;11.00;;;;;;;4.18;100.00;100869.75;5070656;28;20533;-73
2022/11/19 02:10:57;;;;;;;21.58;12.30;;;;;;;4.16;100.00;100877.63;5072709;28;20112;-73
2022/11/19 02:13:34;;;;;;;19.40;11.32;;;;;;;4.17;100.00;100873.25;5072082;28;20036;-73
2022/11/19 02:16:21;;;;;;;18.88;11.60;;;;;;;4.18;100.00;100883.75;5073692;28;20040;-73
2022/11/19 02:18:53;;;;;;;18.95;9.63;;;;;;;4.14;100.00;100881.97;5068451;28;20090;-73
2022/11/19 02:21:33;;;;;;;17.10;10.93;;;;;;;4.13;100.00;100881.94;5068357;28;20067;-72
2022/11/19 02:24:24;;;;;;;16.40;11.30;;;;;;;4.08;100.00;100877.59;5079822;28;20044;-72
2022/11/19 02:26:55;;;;;;;22.73;11.80;;;;;;;4.08;100.00;100879.34;5075583;28;20114;-72
2022/11/19 02:29:30;;;;;;;18.88;11.27;;;;;;;4.06;100.00;100884.56;5081374;28;20036;-78
2022/11/19 02:32:10;;;;;;;15.60;11.13;;;;;;;3.99;100.00;100877.53;5070506;28;20024;-77
2022/11/19 02:35:22;;;;;;;18.27;11.45;;;;;;;3.94;100.00;100879.25;5073849;28;20034;-78
2022/11/19 02:38:02;;;;;;;16.88;11.18;;;;;;;3.90;99.70;100882.69;5065743;28;20040;-78
2022/11/19 02:40:35;;;;;;;17.55;10.43;;;;;;;3.85;100.00;100873.94;5070894;28;20033;-78
2022/11/19 02:43:15;;;;;;;15.77;10.00;;;;;;;3.81;99.76;100880.03;5081064;28;20738;-78
2022/11/19 02:45:52;;;;;;;15.68;10.20;;;;;;;3.74;100.00;100876.50;5071337;28;20072;-78
2022/11/19 02:48:26;;;;;;;16.20;9.80;;;;;;;3.72;100.00;100882.59;5070199;28;20070;-77
2022/11/19 02:50:56;;;;;;;15.70;10.30;;;;;;;3.71;100.00;100891.31;5064719;28;20047;-77
2022/11/19 02:53:22;;;;;;;16.45;9.63;;;;;;;3.70;100.00;100889.56;5071670;28;20469;-77
2022/11/19 03:06:53;;;;;;;16.58;10.95;;;;;;;3.52;99.57;100896.41;5071233;28;20060;-78
2022/11/19 03:09:19;;;;;;;15.70;10.63;;;;;;;3.52;99.50;100903.41;5087010;28;20395;-77
2022/11/19 03:11:50;;;;;;;14.00;10.52;;;;;;;3.48;98.96;100906.84;5070884;28;20035;-77
2022/11/19 03:17:20;;;;;;;16.85;11.15;;;;;;;3.40;99.32;100909.41;5065037;28;20024;-77
2022/11/19 03:19:54;;;;;;;17.95;10.95;;;;;;;3.40;99.07;100912.03;5062844;28;20043;-77
2022/11/19 03:22:32;;;;;;;17.52;11.55;;;;;;;3.38;99.54;100913.75;5084644;28;20484;-77
2022/11/19 03:25:04;;;;;;;17.98;11.23;;;;;;;3.35;99.21;100908.50;5071008;28;20131;-77
2022/11/19 03:27:45;;;;;;;17.88;12.40;;;;;;;3.35;99.44;100911.09;5069312;28;20433;-77
2022/11/19 03:30:14;;;;;;;19.80;12.38;;;;;;;3.35;99.19;100921.59;5070777;28;20036;-77
2022/11/19 03:32:55;;;;;;;18.17;12.13;;;;;;;3.35;99.19;100913.72;5070665;28;20081;-77
2022/11/19 03:35:47;;;;;;;17.60;11.85;;;;;;;3.35;98.88;100919.84;5057473;28;20109;-77
2022/11/19 03:38:17;;;;;;;18.60;11.55;;;;;;;3.31;99.32;100923.28;5060049;28;20098;-77
2022/11/19 03:40:45;;;;;;;20.10;12.63;;;;;;;3.29;99.36;100917.19;5069058;28;20036;-77
2022/11/19 03:43:14;;;;;;;19.63;12.35;;;;;;;3.27;99.17;100915.41;5069165;28;20090;-77
2022/11/19 03:45:43;;;;;;;18.63;12.68;;;;;;;3.26;99.53;100913.63;5069205;28;20024;-77
2022/11/19 03:48:12;;;;;;;21.33;12.30;;;;;;;3.22;99.42;100910.13;5068394;28;20131;-77
2022/11/19 03:50:49;;;;;;;18.95;12.45;;;;;;;3.22;99.89;100921.47;5049829;28;20469;-78
2022/11/19 03:53:16;;;;;;;20.20;12.50;;;;;;;3.19;99.03;100913.59;5052230;28;20390;-77
2022/11/19 03:55:55;;;;;;;21.23;13.02;;;;;;;3.19;99.75;100923.16;5079005;28;20036;-77
2022/11/19 03:58:24;;;;;;;20.17;12.10;;;;;;;3.20;99.52;100922.31;5050277;28;20385;-78
2022/11/19 04:00:49;;;;;;;19.38;12.38;;;;;;;3.19;99.66;100917.94;5083120;28;20104;-77
2022/11/19 04:03:15;;;;;;;25.45;13.60;;;;;;;3.17;99.51;100925.78;5070144;28;20438;-73
2022/11/19 04:05:40;;;;;;;21.83;14.20;;;;;;;3.17;99.32;100925.78;5066208;28;20037;-73
2022/11/19 04:08:06;;;;;;;20.40;13.93;;;;;;;3.15;99.02;100931.88;5069972;28;20461;-73
2022/11/19 04:10:31;;;;;;;18.38;12.68;;;;;;;3.12;99.55;100930.09;5070149;28;20095;-73
2022/11/19 04:12:56;;;;;;;20.35;13.85;;;;;;;3.13;100.00;100934.44;5068706;28;20056;-73
2022/11/19 04:15:22;;;;;;;22.42;15.00;;;;;;;3.13;99.15;100936.19;5068871;28;20429;-73
2022/11/19 04:17:47;;;;;;;23.95;14.07;;;;;;;3.13;99.06;100941.44;5060040;28;20025;-73
2022/11/19 04:20:13;;;;;;;25.63;16.00;;;;;;;3.09;98.69;100943.16;5060630;28;20064;-78
2022/11/19 04:22:38;;;;;;;25.38;16.30;;;;;;;3.06;98.35;100935.25;5075803;28;20501;-78
2022/11/19 04:25:04;;;;;;;24.52;15.63;;;;;;;3.05;97.81;100943.09;5060831;28;20081;-78
2022/11/19 04:27:30;;;;;;;29.60;15.93;;;;;;;2.99;98.20;100952.66;5072278;28;20085;-77
2022/11/19 04:29:55;;;;;;;25.08;15.70;;;;;;;2.97;98.63;100950.88;5072724;28;20023;-77
2022/11/19 04:32:21;;;;;;;25.02;16.27;;;;;;;2.99;98.20;100954.34;5072288;28;20350;-77
2022/11/19 04:34:46;;;;;;;27.42;16.73;;;;;;;2.97;97.96;100951.75;5069386;28;20087;-78
2022/11/19 04:37:11;;;;;;;28.17;17.88;;;;;;;2.95;97.68;100965.66;5072303;28;20117;-78
2022/11/19 04:39:37;;;;;;;24.80;17.60;;;;;;;2.93;97.77;100970.00;5073654;28;20029;-77
2022/11/19 04:42:02;;;;;;;25.52;16.67;;;;;;;2.91;97.98;100966.47;5073496;28;20087;-77
2022/11/19 04:44:28;;;;;;;23.15;16.25;;;;;;;2.91;97.64;100969.97;5072404;28;20035;-77
2022/11/19 04:46:53;;;;;;;25.05;17.52;;;;;;;2.91;97.77;100967.34;5072321;28;20116;-77
2022/11/19 04:49:19;;;;;;;28.63;18.02;;;;;;;2.88;97.60;100969.94;5071798;28;20139;-78
2022/11/19 04:51:44;;;;;;;24.83;17.40;;;;;;;2.87;96.89;100978.66;5072344;28;20086;-78
2022/11/19 04:54:10;;;;;;;29.90;18.23;;;;;;;2.84;96.51;100975.13;5073410;28;20115;-78
2022/11/19 04:56:36;;;;;;;27.77;19.05;;;;;;;2.79;96.89;100975.97;5071357;28;20155;-78
2022/11/19 04:59:02;;;;;;;30.58;16.73;;;;;;;2.79;95.93;100980.28;5060923;28;20024;-78
2022/11/19 05:01:28;;;;;;;26.88;17.65;;;;;;;2.74;95.95;100984.59;5073403;28;20024;-78
2022/11/19 05:03:53;;;;;;;26.90;18.40;;;;;;;2.68;95.93;100989.75;5073048;28;20115;-78
2022/11/19 05:06:19;;;;;;;26.20;17.50;;;;;;;2.67;96.32;100994.13;5072003;28;20491;-77
2022/11/19 05:08:44;;;;;;;26.90;18.17;;;;;;;2.70;96.30;100998.50;5072978;28;20020;-78
2022/11/19 05:11:10;;;;;;;28.27;18.52;;;;;;;2.70;96.76;100995.88;5072042;28;20068;-78
2022/11/19 05:13:35;;;;;;;23.85;18.00;;;;;;;2.70;96.45;100991.53;5073686;28;20177;-79
2022/11/19 05:16:01;;;;;;;27.58;18.75;;;;;;;2.68;96.85;101002.81;5071031;28;20063;-78
2022/11/19 05:18:26;;;;;;;29.33;19.60;;;;;;;2.69;96.76;101007.19;5072897;28;20044;-78
2022/11/19 05:20:52;;;;;;;30.38;19.15;;;;;;;2.67;96.49;101009.81;5051026;28;20033;-79
2022/11/19 05:23:18;;;;;;;31.17;19.35;;;;;;;2.64;95.88;101007.13;5068072;28;20528;-79
2022/11/19 05:25:43;;;;;;;28.77;20.42;;;;;;;2.61;95.89;101007.09;5071373;28;20484;-78
2022/11/19 05:28:09;;;;;;;27.73;19.35;;;;;;;2.61;95.85;101009.69;5072940;28;20040;-79
2022/11/19 05:30:34;;;;;;;27.30;19.58;;;;;;;2.57;95.12;101018.34;5071374;28;20040;-79
2022/11/19 05:33:00;;;;;;;27.30;18.33;;;;;;;2.55;96.08;101028.81;5072751;28;20059;-79
2022/11/19 05:35:25;;;;;;;28.52;19.13;;;;;;;2.53;95.62;101019.19;5069100;28;20071;-79
2022/11/19 05:37:51;;;;;;;27.15;18.90;;;;;;;2.50;95.72;101014.78;5072501;28;20372;-78
2022/11/19 05:40:17;;;;;;;31.50;20.20;;;;;;;2.51;96.57;101021.78;5071477;28;20041;-79
2022/11/19 05:42:42;;;;;;;30.10;19.45;;;;;;;2.48;95.96;101021.72;5054284;28;20040;-79
2022/11/19 05:45:09;;;;;;;26.85;19.00;;;;;;;2.47;95.43;101019.09;5071779;28;20111;-79
2022/11/19 05:47:35;;;;;;;25.35;19.50;;;;;;;2.44;95.73;101021.66;5072036;28;20032;-78
2022/11/19 05:50:00;;;;;;;28.60;18.85;;;;;;;2.42;95.09;101024.25;5072657;28;20066;-78
2022/11/19 05:52:26;;;;;;;29.27;20.33;;;;;;;2.42;95.10;101025.97;5050860;28;20567;-79
2022/11/19 05:54:51;;;;;;;28.23;19.83;;;;;;;2.41;95.53;101029.47;5070359;28;20036;-79
2022/11/19 05:57:17;;;;;;;28.40;20.60;;;;;;;2.40;95.59;101030.31;5056476;28;20208;-79
2022/11/19 05:59:42;;;;;;;27.92;20.38;;;;;;;2.39;96.22;101037.28;5064497;28;20071;-79
2022/11/19 06:02:08;;;;;;;31.10;20.83;;;;;;;2.39;96.29;101044.25;5072047;28;20103;-79
2022/11/19 06:04:33;;;;;;;26.15;18.85;;;;;;;2.38;96.69;101032.91;5072667;28;20119;-78
2022/11/19 06:06:59;;;;;;;28.52;20.77;;;;;;;2.38;96.26;101045.13;5071797;28;20025;-79
2022/11/19 06:09:24;;;;;;;30.42;20.67;;;;;;;2.36;96.11;101042.47;5073111;28;20108;-78
2022/11/19 06:11:50;;;;;;;29.52;20.70;;;;;;;2.36;95.89;101045.94;5071091;28;20060;-78
2022/11/19 06:14:17;;;;;;;27.98;20.15;;;;;;;2.39;95.85;101049.47;5072180;28;20114;-78
2022/11/19 06:16:43;;;;;;;30.48;20.33;;;;;;;2.39;95.80;101057.31;5063589;28;20033;-78
2022/11/19 06:19:09;;;;;;;29.67;20.30;;;;;;;2.37;95.55;101062.50;5060138;28;20073;-78
2022/11/19 06:21:34;;;;;;;30.67;21.20;;;;;;;2.32;95.40;101065.03;5069249;28;20433;-78
2022/11/19 06:24:00;;;;;;;30.70;20.98;;;;;;;2.28;95.59;101070.22;5068995;28;20035;-78
2022/11/19 06:26:27;;;;;;;32.10;20.90;;;;;;;2.29;96.29;101075.47;5072132;28;20245;-78
2022/11/19 06:28:53;;;;;;;31.40;22.13;;;;;;;2.30;96.59;101073.72;5071616;28;20325;-79
2022/11/19 06:31:20;;;;;;;34.03;22.42;;;;;;;2.28;95.13;101085.91;5070560;28;20117;-79
2022/11/19 06:33:46;;;;;;;33.20;22.42;;;;;;;2.23;94.56;101088.44;5070028;28;20051;-78
2022/11/19 06:36:12;;;;;;;30.77;21.75;;;;;;;2.22;94.03;101094.50;5071398;28;20077;-79
2022/11/19 06:38:37;;;;;;;37.08;23.15;;;;;;;2.17;94.23;101097.91;5071783;28;20078;-79
2022/11/19 06:41:03;;;;;;;33.40;22.45;;;;;;;2.13;94.71;101097.88;5086917;28;20415;-78
2022/11/19 06:43:29;;;;;;;38.28;23.05;;;;;;;2.13;94.17;101097.88;5050068;28;20040;-80
2022/11/19 06:45:54;;;;;;;33.72;22.17;;;;;;;2.10;95.00;101100.44;5065690;28;20051;-79
2022/11/19 06:48:21;;;;;;;32.03;21.10;;;;;;;2.08;95.21;101098.66;5069023;28;20110;-78
2022/11/19 06:50:46;;;;;;;34.03;23.17;;;;;;;2.09;95.11;101100.38;5071398;28;20048;-79
2022/11/19 06:53:12;;;;;;;34.03;22.83;;;;;;;2.07;95.02;101091.66;5071166;28;20021;-78
2022/11/19 06:55:38;;;;;;;33.88;23.35;;;;;;;2.08;95.01;101098.66;5066356;28;20107;-79
2022/11/19 06:58:05;;;;;;;34.88;23.27;;;;;;;2.07;94.24;101102.97;5053680;28;20048;-78
2022/11/19 07:00:31;;;;;;;33.67;23.27;;;;;;;2.08;94.90;101106.47;5053126;28;20078;-78
2022/11/19 07:02:57;;;;;;;34.83;23.33;;;;;;;2.06;94.66;101103.84;5086487;28;20218;-79
2022/11/19 07:05:22;;;;;;;32.83;22.33;;;;;;;2.04;94.34;101113.38;5071142;28;20115;-79
2022/11/19 07:07:48;;;;;;;34.90;23.58;;;;;;;2.02;94.62;101115.06;5063767;28;20105;-78
2022/11/19 07:10:13;;;;;;;33.60;22.15;;;;;;;2.02;94.67;101117.69;5070426;28;20534;-79
2022/11/19 07:12:39;;;;;;;31.95;23.25;;;;;;;2.01;94.31;101121.16;5087516;28;20040;-79
2022/11/19 07:15:05;;;;;;;33.05;21.85;;;;;;;2.03;95.18;101119.47;5071165;28;20024;-78
2022/11/19 07:17:31;;;;;;;36.13;22.58;;;;;;;2.03;95.26;101118.56;5055716;28;20033;-79
2022/11/19 07:19:57;;;;;;;32.55;22.02;;;;;;;2.04;95.36;101121.22;5054117;28;20025;-78
2022/11/19 07:22:22;;;;;;;34.35;23.30;;;;;;;2.07;95.49;101123.00;5048402;28;20055;-79
2022/11/19 07:24:48;;;;;;;36.30;22.63;;;;;;;2.06;94.33;101124.72;5055149;28;20380;-79
2022/11/19 07:27:14;;;;;;;34.33;22.40;;;;;;;2.04;94.37;101131.66;5052007;28;20021;-80
2022/11/19 07:29:40;;;;;;;35.95;22.08;;;;;;;2.02;94.30;101135.09;5065687;28;20029;-79
2022/11/19 07:32:05;;;;;;;38.92;24.02;;;;;;;2.00;94.14;101142.88;5065645;28;20452;-79
2022/11/19 07:34:31;;;;;;;38.35;24.05;;;;;;;1.97;93.89;101144.59;5060011;28;20069;-79
2022/11/19 07:36:56;;;;;;;38.10;21.40;;;;;;;1.98;93.48;101149.84;5048799;28;20047;-79
2022/11/19 07:39:22;;;;;;;38.20;23.27;;;;;;;1.92;93.33;101150.59;5054364;28;20028;-79
2022/11/19 07:44:32;;;;;;;40.22;25.10;;;;;;;1.87;93.38;101153.97;5053444;28;20072;-79
2022/11/19 07:46:57;;;;;;;35.95;22.40;;;;;;;1.88;93.94;101159.25;5050501;28;20072;-79
2022/11/19 07:49:24;;;;;;;38.67;25.80;;;;;;;1.86;93.86;101160.94;5059803;28;20087;-79
2022/11/19 07:51:51;;;;;;;39.03;24.00;;;;;;;1.87;93.98;101160.06;5065834;28;20060;-79
2022/11/19 07:54:16;;;;;;;37.17;23.95;;;;;;;1.89;94.43;101161.00;5061285;28;20036;-79
2022/11/19 07:56:42;;;;;;;37.90;23.23;;;;;;;1.91;93.90;101166.25;5053056;28;20029;-79
2022/11/19 07:59:08;;;;;;;35.67;22.95;;;;;;;1.92;94.34;101170.63;5056010;28;20060;-79
2022/11/19 08:01:33;;;;;;;37.88;23.60;;;;;;;1.93;93.94;101172.41;5060114;28;20033;-75
2022/11/19 08:03:59;;;;;;;37.97;23.95;;;;;;;1.91;93.25;101161.03;5059919;28;20037;-74
2022/11/19 08:06:26;;;;;;;38.47;24.30;;;;;;;1.87;92.96;101165.28;5052715;28;20021;-74
2022/11/19 08:08:53;;;;;;;38.13;24.35;;;;;;;1.84;92.86;101162.63;5058612;28;20530;-75
2022/11/19 08:11:19;;;;;;;38.75;23.85;;;;;;;1.83;93.29;101168.72;5053603;28;20048;-75
2022/11/19 08:13:44;;;;;;;40.75;23.27;;;;;;;1.85;93.42;101179.19;5057519;28;20032;-74
2022/11/19 08:18:10;;;;;;;39.97;23.48;;;;;;;1.85;92.94;101172.22;5059003;28;20033;-75
2022/11/19 08:18:58;;;;;;;37.40;23.50;;;;;;;1.90;93.24;101183.66;5064588;28;20035;-75
2022/11/19 08:21:23;;;;;;;39.22;25.05;;;;;;;1.91;93.11;101179.31;5057126;28;20044;-74
2022/11/19 08:23:49;;;;;;;35.28;23.92;;;;;;;1.91;93.30;101185.41;5038745;28;20061;-75
2022/11/19 08:26:14;;;;;;;35.45;22.98;;;;;;;1.90;92.67;101190.59;5052425;28;20033;-75
2022/11/19 08:28:40;;;;;;;35.33;23.13;;;;;;;1.91;93.21;101189.75;5069184;28;20384;-75
2022/11/19 08:31:06;;;;;;;33.53;21.52;;;;;;;1.89;92.52;101194.94;5057842;28;20392;-74
2022/11/19 08:33:32;;;;;;;34.05;23.10;;;;;;;1.88;92.42;101193.19;5056812;28;20037;-75
2022/11/19 08:35:58;;;;;;;38.75;24.10;;;;;;;1.89;91.99;101194.94;5061302;28;20135;-74
2022/11/19 08:38:24;;;;;;;32.80;21.98;;;;;;;1.91;93.20;101200.22;5055161;28;20060;-75
2022/11/19 08:40:51;;;;;;;38.42;23.58;;;;;;;1.91;93.04;101208.03;5057766;28;20037;-74
2022/11/19 08:43:16;;;;;;;37.33;23.27;;;;;;;1.91;92.72;101200.22;5054657;28;20033;-74
2022/11/19 08:45:52;;;;;;;35.50;21.75;;;;;;;1.93;92.28;101207.22;5058730;28;20043;-75
2022/11/19 08:48:18;;;;;;;37.55;24.60;;;;;;;1.92;92.46;101199.34;5055883;28;20163;-75
2022/11/19 08:50:44;;;;;;;39.10;23.00;;;;;;;1.97;92.78;101207.28;5053893;28;20552;-79
2022/11/19 08:53:09;;;;;;;34.42;23.05;;;;;;;2.01;92.71;101211.72;5057327;28;20028;-75
2022/11/19 08:55:35;;;;;;;34.17;22.42;;;;;;;2.01;92.09;101214.31;5054995;28;20095;-74
2022/11/19 08:58:06;;;;;;;37.70;23.48;;;;;;;2.01;91.83;101209.09;5054012;28;20119;-75
2022/11/19 09:00:33;;;;;;;34.42;21.73;;;;;;;2.00;91.97;101210.81;5058643;28;20035;-75
2022/11/19 09:02:58;;;;;;;39.35;22.67;;;;;;;2.02;92.02;101213.47;5067740;28;20373;-74
2022/11/19 09:05:25;;;;;;;32.03;21.73;;;;;;;2.02;92.63;101213.47;5069694;28;20049;-75
2022/11/19 09:07:50;;;;;;;41.30;21.98;;;;;;;2.05;91.64;101218.72;5053553;28;20098;-75
2022/11/19 09:10:17;;;;;;;36.15;22.35;;;;;;;2.10;91.97;101219.69;5059332;28;20053;-75
2022/11/19 09:12:43;;;;;;;33.13;21.63;;;;;;;2.10;91.42;101223.22;5039111;28;20066;-75
2022/11/19 09:15:09;;;;;;;35.58;22.38;;;;;;;2.10;90.51;101224.94;5056470;28;20020;-75
2022/11/19 09:17:35;;;;;;;32.92;21.88;;;;;;;2.09;91.40;101225.78;5057965;28;20029;-75
2022/11/19 09:20:00;;;;;;;37.42;23.80;;;;;;;2.05;90.84;101221.34;5051827;28;20473;-75
2022/11/19 09:22:26;;;;;;;33.28;21.08;;;;;;;2.05;91.31;101221.34;5056834;28;20037;-75
2022/11/19 09:24:52;;;;;;;34.00;21.27;;;;;;;2.09;91.07;101221.44;5054882;28;20434;-75
2022/11/19 09:27:17;;;;;;;31.08;20.20;;;;;;;2.11;91.94;101224.09;5054645;28;20441;-75
2022/11/19 09:29:43;;;;;;;34.17;21.05;;;;;;;2.11;90.13;101227.56;5055857;28;20507;-75
2022/11/19 09:32:08;;;;;;;31.13;21.42;;;;;;;2.10;91.16;101227.53;5068263;28;20037;-75
2022/11/19 09:34:34;;;;;;;33.70;22.33;;;;;;;2.13;92.08;101233.72;5089650;28;20032;-75
2022/11/19 09:37:00;;;;;;;31.85;21.60;;;;;;;2.14;91.29;101232.84;5089855;28;20055;-75
2022/11/19 09:39:25;;;;;;;32.40;20.63;;;;;;;2.17;90.49;101233.78;5089318;28;20528;-75
2022/11/19 09:41:57;;;;;;;33.45;20.58;;;;;;;2.16;90.41;101232.91;5090918;28;20170;-76
2022/11/19 09:44:22;;;;;;;31.80;20.25;;;;;;;2.19;90.34;101245.13;5089517;28;20149;-75
2022/11/19 09:47:01;;;;;;;33.00;21.17;;;;;;;2.18;90.41;101256.41;5091163;28;20424;-75
2022/11/19 09:49:42;;;;;;;30.63;20.50;;;;;;;2.17;89.46;101254.66;5088958;28;20037;-75
2022/11/19 09:52:13;;;;;;;33.67;20.65;;;;;;;2.15;89.36;101258.16;5090834;28;20043;-75
2022/11/19 09:54:47;;;;;;;33.55;21.25;;;;;;;2.14;90.12;101263.34;5089231;28;20477;-75
2022/11/19 09:57:17;;;;;;;31.52;20.33;;;;;;;2.12;89.27;101268.50;5064316;28;20029;-75
2022/11/19 09:59:43;;;;;;;28.17;19.67;;;;;;;2.09;90.15;101270.19;5065850;28;20081;-75
2022/11/19 10:02:16;;;;;;;29.45;19.85;;;;;;;2.12;90.14;101267.63;5070777;28;20067;-75
2022/11/19 10:04:43;;;;;;;29.27;19.92;;;;;;;2.14;89.46;101271.16;5066855;28;20364;-75
2022/11/19 10:07:26;;;;;;;30.83;19.08;;;;;;;2.17;89.28;101278.19;5082289;28;20587;-75
2022/11/19 10:10:27;;;;;;;28.48;19.63;;;;;;;2.15;89.75;101278.16;5081013;28;20028;-75
2022/11/19 10:13:31;;;;;;;32.70;20.73;;;;;;;2.14;88.38;101282.50;5069335;28;20116;-75
2022/11/19 10:16:28;;;;;;;30.92;19.00;;;;;;;2.11;87.56;101282.44;5024571;28;20287;-75
2022/11/19 10:19:06;;;;;;;33.10;18.85;;;;;;;2.06;88.09;101278.88;5075110;28;20032;-75
2022/11/19 10:21:32;;;;;;;34.67;19.95;;;;;;;2.08;88.75;101278.91;5082932;28;20047;-75
2022/11/19 10:24:16;;;;;;;29.35;19.08;;;;;;;2.08;88.99;101285.00;5078153;28;20047;-75
2022/11/19 10:26:48;;;;;;;28.50;18.02;;;;;;;2.08;87.63;101295.47;5070781;28;20041;-75
2022/11/19 10:29:18;;;;;;;28.05;19.10;;;;;;;2.08;87.05;101286.75;5067806;28;20107;-76
2022/11/19 10:31:49;;;;;;;29.05;19.48;;;;;;;2.10;88.25;101293.75;5073209;28;20036;-76
2022/11/19 10:34:32;;;;;;;29.40;18.73;;;;;;;2.10;88.07;101291.16;5080441;28;20028;-76
2022/11/19 10:37:09;;;;;;;30.13;18.65;;;;;;;2.15;87.41;101291.22;5059961;28;20098;-76
2022/11/19 10:39:52;;;;;;;31.13;19.10;;;;;;;2.19;88.17;101302.63;5061242;28;20048;-76
2022/11/19 10:42:32;;;;;;;31.30;17.83;;;;;;;2.24;86.84;101296.63;5063570;28;20116;-75
2022/11/19 10:45:23;;;;;;;30.67;18.95;;;;;;;2.28;87.90;101294.97;5063747;28;20576;-76
2022/11/19 10:48:21;;;;;;;27.80;17.90;;;;;;;2.35;88.56;101286.41;5049357;28;20060;-76
2022/11/19 10:50:48;;;;;;;27.60;17.13;;;;;;;2.34;87.11;101287.22;5063768;28;20147;-76
2022/11/19 10:53:22;;;;;;;30.23;18.45;;;;;;;2.33;86.39;101286.34;5063445;28;20033;-76
2022/11/19 10:55:55;;;;;;;27.02;18.80;;;;;;;2.30;87.28;101294.16;5063038;28;20037;-76
2022/11/19 10:58:43;;;;;;;26.65;16.33;;;;;;;2.28;85.87;101295.84;5066792;28;20047;-76
2022/11/19 11:01:28;;;;;;;31.33;17.52;;;;;;;2.20;87.16;101289.59;5053421;28;20048;-76
2022/11/19 11:04:24;;;;;;;27.40;16.88;;;;;;;2.19;86.42;101302.63;5063701;28;20036;-76
2022/11/19 11:07:01;;;;;;;31.48;16.80;;;;;;;2.09;85.79;101297.19;5069917;28;20074;-76
2022/11/19 11:09:31;;;;;;;29.58;16.90;;;;;;;2.03;86.15;101294.47;5070080;28;20040;-76
2022/11/19 11:15:24;;;;;;;26.58;16.25;;;;;;;2.01;85.72;101300.53;5071275;28;20048;-76
2022/11/19 11:18:08;;;;;;;26.02;15.65;;;;;;;1.98;86.11;101297.81;5062515;28;20062;-76
2022/11/19 11:20:36;;;;;;;24.80;16.30;;;;;;;1.97;86.02;101303.91;5063253;28;20046;-77
2022/11/19 11:23:09;;;;;;;26.42;16.52;;;;;;;1.98;86.88;101295.22;5059868;28;20460;-76
2022/11/19 11:25:36;;;;;;;25.60;15.90;;;;;;;2.01;86.52;101298.78;5069208;28;20037;-76
2022/11/19 11:28:14;;;;;;;27.38;16.27;;;;;;;2.04;87.01;101284.91;5069848;28;20036;-76
2022/11/19 11:31:04;;;;;;;24.42;15.57;;;;;;;2.04;87.00;101277.06;5058866;28;20033;-76
2022/11/19 11:33:40;;;;;;;22.45;15.48;;;;;;;2.03;86.28;101283.13;5066336;28;20039;-76
2022/11/19 11:36:08;;;;;;;24.52;15.32;;;;;;;2.07;86.87;101283.22;5065121;28;20106;-76
2022/11/19 11:38:46;;;;;;;25.02;15.18;;;;;;;2.07;86.80;101285.84;5069499;28;20096;-76
2022/11/19 11:41:18;;;;;;;21.05;14.48;;;;;;;2.07;84.85;101282.34;5070864;28;20460;-76
2022/11/19 11:44:00;;;;;;;;;;;;;;;2.07;87.51;101285.84;5071974;28;20041;-77
2022/11/19 11:46:46;;;;;;;21.23;13.45;;;;;;;1.97;85.77;101280.41;5066989;28;19920;-76
2022/11/19 11:49:45;;;;;;;24.83;15.38;;;;;;;1.97;85.83;101285.63;5061846;28;20484;-77
2022/11/19 11:52:11;;;;;;;22.40;13.77;;;;;;;1.92;84.84;101282.91;5025355;28;20060;-77
2022/11/19 11:54:52;;;;;;;19.63;13.68;;;;;;;1.92;85.79;101283.78;5070895;28;20031;-76